x

La Have Bank (44150) Wave Buoy

6:00am - Tue 22nd Jul 2014 All times are ADT. -3 hours from GMT.

  • Sig Wave height 3.9ft
  • Peak Period 8s
  • Wind
    7mph, 9mph gusts
  • Sea Temp 62°f
  • Air Temp 60°f
  • Sea Pressure 1020.6mb
  • La Have Bank
  • La Have Bank

More Historic Weather Station data

Upgrade to MSW Pro to gain access to the past 30 days of data for over 8000 Wavebouys and Weather Stations around the globe.

Join Pro

Comparision Forecast

View Surf forecast
   
Tue 07/22 6:00am 4ft 8s 7 9 mph 1020.6mb 62f 60f
5:00am 4.5ft 7s 7 9 mph 1019.9mb 63f 61f
4:00am 4.5ft 8s 4 7 mph 1019.8mb 63f 61f
3:00am 5ft 7s 4 7 mph 1020.1mb 63f 62f
2:00am 4.5ft 8s 4 7 mph 1020.2mb 63f 62f
1:00am 4.5ft 7s 4 7 mph 1020.5mb 63f 62f
12:00am 4.5ft 7s 4 7 mph 1020.4mb 63f 63f
Mon 07/21 11:00pm 4.5ft 8s 7 9 mph 1020.7mb 63f 63f
10:00pm 4.5ft 7s 7 9 mph 1020.7mb 62f 62f
9:00pm 4ft 8s 9
mph
1020.1mb 62f 63f
8:00pm 4ft 7s 9
mph
1020mb 62f 64f
7:00pm 4.5ft 8s 9 11 mph 1019.9mb 62f 64f
6:00pm 4.5ft 7s 11
mph
1019.9mb 62f 64f
5:00pm 4.5ft 7s 13
mph
1020.1mb 62f 64f
4:00pm 4.5ft 7s 11 13 mph 1020mb 62f 64f
3:00pm 4.5ft 7s 9 11 mph 1020.1mb 62f 64f
2:00pm 4.5ft 7s 11 13 mph 1020.2mb 62f 64f
12:00pm 4.5ft 6s 13 16 mph 1020.7mb 62f 64f
11:00am 4.5ft 6s 13 16 mph 1020.4mb 62f 64f
10:00am 4ft 6s 16 18 mph 1020.3mb 61f 63f
9:00am 4ft 7s 13
mph
1020.5mb 61f 64f
8:00am 4ft 7s 13 16 mph 1020.1mb 61f 63f
7:00am 4ft 5s 13
mph
1019.8mb 61f 64f
6:00am 4ft 7s 13 16 mph 1019.6mb 61f 64f
5:00am 4ft 6s 13 16 mph 1019.1mb 62f 64f
4:00am 4ft 6s 13 16 mph 1019.2mb 62f 64f
3:00am 3.5ft 8s 13 16 mph 1019.6mb 62f 64f
2:00am 3.5ft 8s 13 16 mph 1020mb 62f 64f
1:00am 3.5ft 8s 13 16 mph 1020.5mb 62f 64f
12:00am 3.5ft 8s 13 16 mph 1020.8mb 62f 64f
Sun 07/20 11:00pm 3.5ft 7s 13 16 mph 1021.4mb 62f 64f
10:00pm 3.5ft 7s 13 16 mph 1021.7mb 63f 64f
9:00pm 3.5ft 8s 13
mph
1021.6mb 63f 65f
8:00pm 3.5ft 7s 11
mph
1021.7mb 63f 65f
7:00pm 3.5ft 8s 11 13 mph 1021.6mb 63f 65f
6:00pm 3ft 8s 11 13 mph 1021.8mb 63f 65f
5:00pm 3ft 8s 11 13 mph 1022.1mb 62f 65f
4:00pm 2.5ft 8s 11 13 mph 1022.4mb 62f 65f
3:00pm 2.5ft 8s 11
mph
1022.9mb 62f 65f
2:00pm 2.5ft 8s 9 11 mph 1023.1mb 62f 65f
1:00pm 2.5ft 8s 9 11 mph 1023.5mb 62f 64f
12:00pm 2.5ft 8s 11
mph
1023.8mb 62f 64f
11:00am 2.5ft 8s 11 13 mph 1023.9mb 62f 64f
10:00am 3ft 8s 9 11 mph 1024mb 62f 64f
9:00am 3ft 7s 9
mph
1024.4mb 62f 64f
8:00am 3ft 8s 7 9 mph 1024.5mb 62f 64f
7:00am 3ft 8s 9
mph
1024mb 62f 63f
6:00am 3ft 8s 9 11 mph 1023.6mb 62f 63f
5:00am 2.5ft 8s 4 7 mph 1023.7mb 62f 63f
4:00am 2.5ft 8s 7
mph
1023.6mb 62f 63f
3:00am 3ft 8s 4
mph
1024mb 62f 62f
2:00am 2.5ft 7s 4
mph
1024.5mb 62f 62f
1:00am 3ft 8s 4
mph
1024.6mb 62f 63f
12:00am 3.5ft 8s 2 4 mph 1024.9mb 63f 63f
Sat 07/19 11:00pm 3.5ft 8s 4
mph
1024.9mb 63f 63f
10:00pm 3.5ft 8s 4
mph
1025mb 63f 63f
9:00pm 3.5ft 8s 2
mph
1024.8mb 62f 63f
8:00pm 3.5ft 8s 2 4 mph 1024.7mb 63f 63f
7:00pm 4ft 8s 2
mph
1024.6mb 63f 64f
6:00pm 4.5ft 8s 2
mph
1024.4mb 63f 64f
5:00pm 4.5ft 8s  -  2 mph 1024.6mb 64f 64f
4:00pm 3.5ft 8s 2 4 mph 1024.5mb 64f 63f
3:00pm 4ft 8s 4 7 mph 1024.9mb 64f 63f
2:00pm 4.5ft 8s 4
mph
1025.2mb 63f 63f
1:00pm 4.5ft 9s 4
mph
1025.5mb 62f 62f
12:00pm 4.5ft 8s 4 7 mph 1025.7mb 62f 62f
11:00am 5ft 8s 7 9 mph 1025.3mb 61f 62f
10:00am 5ft 9s 7 9 mph 1025.2mb 61f 62f
9:00am 5.5ft 9s 7
mph
1025.1mb 61f 62f
8:00am 5ft 8s 7
mph
1024.8mb 61f 61f
7:00am 6ft 8s 7 9 mph 1024.5mb 61f 61f
6:00am 5ft 8s 7 9 mph 1024.3mb 61f 61f
5:00am 5ft 8s 7 9 mph 1024.1mb 61f 61f
4:00am 5ft 8s 9
mph
1023.5mb 61f 61f
3:00am 5ft 9s 7 9 mph 1023.5mb 61f 61f
2:00am 5.5ft 9s 7 9 mph 1023.7mb 62f 62f
1:00am 5ft 9s 9 11 mph 1023.8mb 62f 62f
12:00am 5.5ft 9s 7 9 mph 1023.7mb 61f 61f
Fri 07/18 11:00pm 5ft 8s 9 11 mph 1023.5mb 61f 61f
10:00pm 6ft 8s 9
mph
1023.1mb 62f 63f
9:00pm 6.5ft 9s 7 9 mph 1022.5mb 62f 63f
8:00pm 7ft 9s 7
mph
1021.9mb 62f 63f
7:00pm 7ft 8s 7
mph
1021.8mb 62f 63f
6:00pm 6ft 10s 7 9 mph 1021.6mb 62f 62f
5:00pm 6ft 9s 7 9 mph 1021.1mb 62f 63f
4:00pm 6ft 8s 4 7 mph 1021.2mb 62f 64f
3:00pm 6ft 9s 4 7 mph 1020.9mb 62f 62f
2:00pm 6.5ft 9s 4
mph
1020.8mb 61f 62f
1:00pm 6.5ft 10s 4 7 mph 1020.8mb 61f 61f
12:00pm 6ft 10s 2 4 mph 1020.8mb 61f 61f
11:00am 6ft 9s 2 4 mph 1020.8mb 60f 61f